Time;durP1;ratioP1;P1;durP2;ratioP2;P2;SDS_P1;SDS_P2;PMS_P1;PMS_P2;Temp;Humidity;BMP_temperature;BMP_pressure;BME280_temperature;BME280_humidity;BME280_pressure;Samples;Min_cycle;Max_cycle;Signal;HPM_P1;HPM_P2
2022/09/02 00:01:01;;;;;;;1.23;1.13;;;23.60;95.90;;;23.73;44.48;101270.75;4905878;28;96915;-45
2022/09/02 00:03:30;;;;;;;1.07;0.97;;;23.60;93.60;;;23.74;45.63;101271.59;4913489;28;99113;-45
2022/09/02 00:05:56;;;;;;;0.80;0.80;;;23.60;95.90;;;23.74;45.78;101271.59;4914825;28;97530;-49
2022/09/02 00:08:22;;;;;;;1.23;1.13;;;23.60;95.80;;;23.73;45.84;101265.38;4919240;28;98787;-46
2022/09/02 00:10:48;;;;;;;1.20;1.10;;;23.60;96.00;;;23.74;46.29;101269.78;4917595;28;97498;-45
2022/09/02 00:13:18;;;;;;;1.07;0.70;;;23.60;96.20;;;23.71;46.39;101264.59;4911000;28;96990;-45
2022/09/02 00:15:46;;;;;;;1.00;0.90;;;23.60;96.30;;;23.76;44.88;101261.56;4914247;28;97072;-47
2022/09/02 00:18:12;;;;;;;0.83;0.83;;;23.60;94.80;;;23.68;46.07;101261.31;4905901;28;97141;-45
2022/09/02 00:20:42;;;;;;;1.47;1.20;;;23.60;96.20;;;23.69;46.00;101263.03;4915585;28;102487;-45
2022/09/02 00:23:09;;;;;;;0.87;0.87;;;23.60;96.00;;;23.66;45.72;101253.34;4911173;28;97191;-45
2022/09/02 00:25:37;;;;;;;1.20;1.10;;;23.60;95.90;;;23.71;45.90;101261.06;4921051;28;98518;-43
2022/09/02 00:28:04;;;;;;;0.80;0.80;;;23.50;96.10;;;23.72;46.58;101258.28;4919723;28;101613;-45
2022/09/02 00:30:31;;;;;;;4.63;1.33;;;23.60;96.50;;;23.73;46.16;101259.13;4908426;28;97024;-44
2022/09/02 00:32:57;;;;;;;0.80;0.80;;;23.60;96.10;;;23.73;46.09;101253.72;4912541;28;97205;-45
2022/09/02 00:35:23;;;;;;;1.00;0.83;;;23.60;96.30;;;23.70;46.44;101253.97;4917918;28;98131;-47
2022/09/02 00:37:49;;;;;;;0.80;0.80;;;23.50;96.30;;;23.72;45.78;101252.00;4914453;28;97689;-53
2022/09/02 00:40:15;;;;;;;2.80;1.20;;;23.50;96.00;;;23.73;42.07;101253.72;4932601;28;96813;-43
2022/09/02 00:42:41;;;;;;;2.93;1.00;;;23.50;91.10;;;23.72;42.80;101260.06;4919886;28;97459;-44
2022/09/02 00:45:09;;;;;;;2.90;0.90;;;23.50;92.10;;;23.70;45.60;101253.97;4913052;28;96614;-45
2022/09/02 00:47:35;;;;;;;0.90;0.80;;;23.50;95.10;;;23.69;46.14;101254.94;4905505;28;97271;-46
2022/09/02 00:50:08;;;;;;;2.13;1.10;;;23.50;96.20;;;23.71;45.46;101251.13;4919231;28;97315;-43
2022/09/02 00:52:59;;;;;;;2.80;1.40;;;23.50;94.50;;;23.69;43.02;101257.63;4913610;28;96884;-45
2022/09/02 00:55:30;;;;;;;1.63;0.90;;;23.40;87.90;;;23.64;44.92;101252.63;4932334;28;101813;-44
2022/09/02 00:58:05;;;;;;;1.13;1.03;;;23.40;93.90;;;23.58;41.74;101255.84;4915732;28;97803;-45
2022/09/02 01:00:41;;;;;;;1.27;0.80;;;23.30;87.00;;;23.56;45.41;101243.41;4917254;28;97437;-44
2022/09/02 01:03:17;;;;;;;1.07;0.93;;;23.20;95.60;;;23.55;40.86;101244.41;4912189;28;97158;-44
2022/09/02 01:05:47;;;;;;;3.03;1.10;;;23.30;91.00;;;23.55;40.58;101239.00;4921408;28;98150;-45
2022/09/02 01:08:18;;;;;;;1.00;0.90;;;23.30;90.00;;;23.56;44.11;101240.72;4912151;28;96989;-45
2022/09/02 01:10:46;;;;;;;2.30;1.00;;;23.30;91.70;;;23.56;44.40;101246.13;4916190;28;100051;-47
2022/09/02 01:13:17;;;;;;;0.90;0.90;;;23.30;93.00;;;23.58;44.76;101238.78;4918596;28;97006;-43
2022/09/02 01:15:51;;;;;;;0.60;0.60;;;23.30;93.30;;;23.60;45.59;101239.56;4916388;28;97762;-45
2022/09/02 01:18:24;;;;;;;0.90;0.90;;;23.40;95.80;;;23.60;45.37;101242.25;4913463;28;99606;-43
2022/09/02 01:20:51;;;;;;;2.00;0.83;;;23.40;94.90;;;23.58;43.71;101238.78;4915966;28;96895;-43
2022/09/02 01:23:18;;;;;;;1.27;0.83;;;23.30;91.30;;;23.56;45.18;101241.59;4925437;28;97416;-43
2022/09/02 01:25:45;;;;;;;1.53;0.80;;;23.30;94.40;;;23.57;45.60;101245.13;4919441;28;99668;-43
2022/09/02 01:28:14;;;;;;;0.93;0.87;;;23.30;95.40;;;23.57;41.57;101242.44;4911571;28;98139;-45
2022/09/02 01:30:47;;;;;;;0.83;0.80;;;23.40;92.60;;;23.58;45.92;101237.00;4913471;28;96779;-45
2022/09/02 01:33:15;;;;;;;1.00;0.90;;;23.40;95.80;;;23.60;46.07;101242.25;4920844;28;97108;-48
2022/09/02 01:35:41;;;;;;;0.93;0.77;;;23.40;95.90;;;23.64;46.28;101238.31;4915464;28;97892;-45
2022/09/02 01:38:07;;;;;;;0.70;0.70;;;23.40;95.80;;;23.62;46.03;101240.28;4918272;28;97438;-46
2022/09/02 01:40:34;;;;;;;1.10;1.00;;;23.40;95.90;;;23.64;45.81;101239.16;4918534;28;97478;-46
2022/09/02 01:43:11;;;;;;;0.97;0.87;;;23.40;95.60;;;23.65;42.02;101234.63;4908958;28;97261;-43
2022/09/02 01:45:39;;;;;;;0.80;0.70;;;23.40;91.40;;;23.63;45.99;101242.84;4918818;28;98631;-44
2022/09/02 01:48:07;;;;;;;2.60;1.00;;;23.40;95.80;;;23.62;44.11;101232.19;4902350;28;96944;-45
2022/09/02 01:50:36;;;;;;;0.80;0.77;;;23.40;92.30;;;23.60;46.01;101224.25;4917478;28;96807;-47
2022/09/02 01:53:02;;;;;;;0.77;0.70;;;23.40;95.60;;;23.62;46.13;101226.81;4914477;28;97007;-45
2022/09/02 01:55:29;;;;;;;0.73;0.70;;;23.40;96.00;;;23.61;45.66;101227.81;4902084;28;98449;-46
2022/09/02 01:57:56;;;;;;;1.30;0.70;;;23.40;94.50;;;23.63;45.02;101231.22;4924863;28;97096;-44
2022/09/02 02:00:23;;;;;;;1.80;0.90;;;23.40;93.80;;;23.60;42.29;101220.72;4917076;28;97145;-44
2022/09/02 02:02:49;;;;;;;1.37;0.97;;;23.40;88.40;;;23.58;46.26;101228.03;4927700;28;97426;-53
2022/09/02 02:05:15;;;;;;;1.37;0.97;;;23.40;96.00;;;23.57;44.08;101229.88;4922947;28;102096;-45
2022/09/02 02:07:43;;;;;;;0.80;0.80;;;23.40;92.60;;;23.58;46.09;101222.63;4913388;28;97200;-46
2022/09/02 02:10:11;;;;;;;0.90;0.70;;;23.40;95.60;;;23.55;46.37;101223.72;4915961;28;99007;-45
2022/09/02 02:12:38;;;;;;;1.83;1.10;;;23.40;96.00;;;23.57;46.25;101220.91;4917879;28;97422;-45
2022/09/02 02:15:12;;;;;;;0.80;0.70;;;23.40;96.00;;;23.58;46.00;101218.13;4921079;28;100382;-44
2022/09/02 02:17:38;;;;;;;0.90;0.80;;;23.40;95.70;;;23.56;46.32;101224.56;4916900;28;97213;-43
2022/09/02 02:20:06;;;;;;;0.90;0.70;;;23.40;96.10;;;23.58;46.44;101219.94;4920651;28;97392;-43
2022/09/02 02:22:32;;;;;;;1.00;0.80;;;23.40;96.10;;;23.57;45.15;101221.78;4920564;28;97542;-44
2022/09/02 02:24:58;;;;;;;2.60;1.10;;;23.40;93.00;;;23.59;43.14;101224.38;4912198;28;98588;-45
2022/09/02 02:27:24;;;;;;;2.67;1.10;;;23.40;91.10;;;23.55;42.31;101223.72;4927633;28;112697;-44
2022/09/02 02:29:50;;;;;;;1.43;0.80;;;23.30;86.90;;;23.52;46.34;101228.50;4918773;28;97273;-44
2022/09/02 02:32:17;;;;;;;0.83;0.77;;;23.20;95.00;;;23.52;43.18;101228.50;4923682;28;96868;-44
2022/09/02 02:34:44;;;;;;;0.93;0.70;;;23.20;92.60;;;23.49;46.13;101229.63;4926413;28;97091;-43
2022/09/02 02:37:11;;;;;;;1.00;0.83;;;23.20;95.60;;;23.50;45.88;101228.63;4923670;28;98166;-45
2022/09/02 02:39:39;;;;;;;0.93;0.77;;;23.20;94.90;;;23.50;45.18;101225.09;4908962;28;97220;-43
2022/09/02 02:42:06;;;;;;;1.07;0.70;;;23.20;94.20;;;23.50;45.86;101225.09;4914617;28;96913;-44
2022/09/02 02:44:33;;;;;;;1.20;0.90;;;23.30;94.60;;;23.50;45.29;101225.94;4911179;28;96758;-43
2022/09/02 02:47:00;;;;;;;2.97;1.00;;;23.20;92.80;;;23.48;44.64;101227.03;4911392;28;97957;-47
2022/09/02 02:49:26;;;;;;;0.80;0.77;;;23.20;91.60;;;23.48;45.64;101227.03;4923224;28;96962;-44
2022/09/02 02:51:52;;;;;;;1.20;0.60;;;23.20;94.70;;;23.47;45.44;101230.72;4916274;28;96940;-45
2022/09/02 02:54:20;;;;;;;0.77;0.77;;;23.10;93.70;;;23.43;44.87;101230.97;4918638;28;97736;-46
2022/09/02 02:56:46;;;;;;;0.77;0.70;;;23.10;92.80;;;23.40;46.18;101231.19;4921299;28;96773;-43
2022/09/02 02:59:12;;;;;;;0.60;0.60;;;23.00;95.20;;;23.41;46.19;101222.13;4923144;28;96603;-43
2022/09/02 03:01:38;;;;;;;1.03;0.70;;;23.10;95.60;;;23.40;45.93;101220.44;4924521;28;97172;-45
2022/09/02 03:04:04;;;;;;;2.40;1.00;;;23.10;94.30;;;23.38;43.51;101230.47;4910935;28;107864;-43
2022/09/02 03:06:30;;;;;;;1.53;1.07;;;23.00;88.80;;;23.32;44.81;101222.91;4928688;28;97240;-44
2022/09/02 03:08:56;;;;;;;1.17;0.80;;;22.90;90.70;;;23.29;45.77;101220.47;4915614;28;96896;-44
2022/09/02 03:11:24;;;;;;;3.23;1.23;;;22.90;93.80;;;23.25;41.92;101227.03;4918913;28;98130;-44
2022/09/02 03:13:50;;;;;;;1.53;1.03;;;22.80;86.90;;;23.26;44.92;101223.38;4907594;28;97330;-44
2022/09/02 03:16:18;;;;;;;2.37;1.37;;;22.90;92.10;;;23.22;39.05;101221.91;4919433;28;96802;-46
2022/09/02 03:18:45;;;;;;;3.80;1.27;;;22.90;89.00;;;23.19;42.60;101221.31;4902240;28;97412;-52
2022/09/02 03:21:14;;;;;;;1.20;1.00;;;22.80;86.40;;;23.14;44.76;101216.28;4923895;28;97809;-55
2022/09/02 03:23:41;;;;;;;5.17;1.00;;;22.70;90.10;;;23.06;42.85;101226.81;4910291;28;97467;-45
2022/09/02 03:26:14;;;;;;;2.03;1.10;;;22.60;86.70;;;23.00;43.82;101221.88;4913133;28;96910;-48
2022/09/02 03:28:40;;;;;;;2.20;1.00;;;22.40;88.40;;;22.97;44.88;101217.63;4910429;28;97027;-49
2022/09/02 03:31:07;;;;;;;1.70;1.00;;;22.40;88.50;;;22.95;45.06;101218.72;4911858;28;97334;-51
2022/09/02 03:33:33;;;;;;;1.57;1.10;;;22.40;89.60;;;22.89;42.68;101219.22;4900396;28;97745;-47
2022/09/02 03:35:59;;;;;;;3.33;1.77;;;22.40;87.20;;;22.80;40.57;101216.22;4915818;28;97187;-51
2022/09/02 03:38:25;;;;;;;2.53;0.93;;;22.20;86.80;;;22.72;41.82;101217.81;4916501;28;97571;-51
2022/09/02 03:40:50;;;;;;;2.70;1.20;;;22.10;87.20;;;22.65;41.41;101222.78;4913359;28;97615;-51
2022/09/02 03:43:16;;;;;;;1.53;1.00;;;22.00;87.20;;;22.57;39.72;101225.22;4912378;28;98595;-48
2022/09/02 03:45:42;;;;;;;52.90;3.07;;;22.00;87.70;;;22.54;42.81;101220.94;4920375;28;100299;-48
2022/09/02 03:48:11;;;;;;;10.13;1.67;;;21.90;87.80;;;22.48;44.73;101223.25;4921972;28;97153;-50
2022/09/02 03:50:43;;;;;;;5.43;1.40;;;21.80;88.20;;;22.40;38.48;101217.59;4899341;28;97306;-48
2022/09/02 03:53:09;;;;;;;1.47;0.70;;;21.80;87.20;;;22.30;40.34;101212.06;4906496;28;103671;-50
2022/09/02 03:55:37;;;;;;;0.80;0.80;;;21.70;87.80;;;22.25;44.37;101209.72;4921729;28;99081;-52
2022/09/02 03:58:03;;;;;;;1.60;0.80;;;21.60;89.80;;;22.19;39.64;101210.19;4908483;28;96881;-50
2022/09/02 04:00:30;;;;;;;0.90;0.50;;;21.60;88.90;;;22.15;39.77;101214.09;4918424;28;102098;-51
2022/09/02 04:02:57;;;;;;;1.13;0.50;;;21.50;89.10;;;22.15;43.75;101216.78;4908987;28;97681;-49
2022/09/02 04:05:23;;;;;;;1.17;0.53;;;21.50;90.00;;;22.10;43.16;101210.88;4916329;28;97636;-52
2022/09/02 04:07:51;;;;;;;0.40;0.30;;;21.50;90.50;;;22.06;40.38;101212.09;4917291;28;97018;-54
2022/09/02 04:10:20;;;;;;;0.63;0.40;;;21.40;89.10;;;22.02;39.08;101213.25;4917920;28;97062;-49
2022/09/02 04:12:47;;;;;;;0.20;0.20;;;21.40;88.70;;;22.02;44.05;101213.25;4910136;28;97766;-50
2022/09/02 04:15:12;;;;;;;0.20;0.20;;;21.30;89.50;;;22.01;44.94;101206.19;4916731;28;97297;-49
2022/09/02 04:17:41;;;;;;;0.20;0.20;;;21.30;90.00;;;22.01;43.42;101211.56;4911610;28;96700;-47
2022/09/02 04:20:10;;;;;;;0.40;0.10;;;21.30;90.40;;;21.95;40.45;101212.00;4914989;28;97166;-47
2022/09/02 04:22:36;;;;;;;0.00;0.00;;;21.30;89.60;;;21.92;40.36;101206.84;4916850;28;96969;-46
2022/09/02 04:25:03;;;;;;;0.40;0.20;;;21.30;89.10;;;21.92;40.41;101207.72;4912752;28;97150;-48
2022/09/02 04:27:29;;;;;;;0.10;0.10;;;21.20;89.90;;;21.90;40.36;101208.81;4917428;28;96928;-52
2022/09/02 04:29:55;;;;;;;0.10;0.10;;;21.20;89.60;;;21.87;40.89;101198.28;4907549;28;97340;-51
2022/09/02 04:32:21;;;;;;;0.10;0.10;;;21.20;89.40;;;21.84;39.55;101203.88;4909971;28;97125;-52
2022/09/02 04:34:48;;;;;;;0.00;0.00;;;21.20;88.90;;;21.80;39.50;101213.13;4915644;28;97299;-53
2022/09/02 04:37:14;;;;;;;0.37;0.20;;;21.20;89.70;;;21.77;41.73;101208.00;4912938;28;97610;-51
2022/09/02 04:39:40;;;;;;;0.10;0.10;;;21.10;90.20;;;21.76;42.51;101204.44;4905976;28;97491;-49
2022/09/02 04:42:06;;;;;;;0.00;0.00;;;21.10;90.30;;;21.74;40.59;101203.72;4901167;28;101391;-48
2022/09/02 04:44:32;;;;;;;0.03;0.00;;;21.10;90.30;;;21.67;41.11;101203.28;4905843;28;99159;-50
2022/09/02 04:46:58;;;;;;;0.00;0.00;;;21.00;90.20;;;21.63;40.43;101201.81;4911028;28;97124;-52
2022/09/02 04:49:24;;;;;;;0.00;0.00;;;21.00;90.60;;;21.63;43.06;101212.53;4912842;28;101106;-52
2022/09/02 04:51:51;;;;;;;0.00;0.00;;;21.00;90.90;;;21.60;42.88;101207.41;4908544;28;96687;-53
2022/09/02 04:54:17;;;;;;;0.10;0.07;;;20.90;90.90;;;21.60;41.31;101212.78;4904861;28;100400;-50
2022/09/02 04:56:43;;;;;;;0.00;0.00;;;20.90;90.70;;;21.56;41.75;101205.94;4900517;28;97279;-52
2022/09/02 04:59:09;;;;;;;0.00;0.00;;;20.90;91.10;;;21.59;42.71;101211.06;4902539;28;103413;-52
2022/09/02 05:01:36;;;;;;;0.00;0.00;;;20.90;90.90;;;21.48;39.89;101208.28;4923192;28;97656;-53
2022/09/02 05:04:08;;;;;;;0.00;0.00;;;20.80;90.70;;;21.45;40.98;101203.16;4905711;28;97464;-50
2022/09/02 05:06:35;;;;;;;0.33;0.10;;;20.80;90.80;;;21.42;41.47;101208.75;4912891;28;97276;-49
2022/09/02 05:09:03;;;;;;;0.03;0.03;;;20.70;91.20;;;21.39;40.88;101206.25;4908958;28;97264;-47
2022/09/02 05:11:31;;;;;;;0.00;0.00;;;20.70;91.00;;;21.44;42.25;101200.59;4915867;28;100226;-50
2022/09/02 05:14:01;;;;;;;0.00;0.00;;;20.80;91.00;;;21.44;42.78;101206.81;4914485;28;97419;-47
2022/09/02 05:16:35;;;;;;;0.00;0.00;;;20.80;91.40;;;21.47;43.32;101195.84;4919902;28;97387;-49
2022/09/02 05:19:03;;;;;;;0.27;0.20;;;20.80;91.80;;;21.53;46.21;101203.44;4905512;28;97133;-49
2022/09/02 05:21:30;;;;;;;0.00;0.00;;;20.90;91.80;;;21.61;45.31;101198.38;4912802;28;97960;-50
2022/09/02 05:23:57;;;;;;;0.97;0.00;;;21.00;91.40;;;21.65;44.26;101199.88;4904806;28;98138;-53
2022/09/02 05:26:23;;;;;;;0.00;0.00;;;21.00;90.80;;;21.73;48.35;101202.00;4903483;28;97221;-52
2022/09/02 05:28:50;;;;;;;0.47;0.00;;;21.10;91.40;;;21.85;49.22;101200.25;4906144;28;103374;-56
2022/09/02 05:31:18;;;;;;;0.27;0.03;;;21.20;93.80;;;21.93;49.19;101198.69;4910923;28;97540;-51
2022/09/02 05:33:45;;;;;;;0.00;0.00;;;21.30;96.10;;;22.04;48.84;101208.63;4911923;28;97500;-50
2022/09/02 05:36:16;;;;;;;0.00;0.00;;;21.50;95.10;;;22.18;48.98;101203.09;4915198;28;98113;-54
2022/09/02 05:38:43;;;;;;;0.13;0.07;;;21.70;97.60;;;22.33;48.49;101205.59;4912651;28;96918;-49
2022/09/02 05:41:14;;;;;;;0.00;0.00;;;22.00;96.80;;;22.41;47.90;101206.72;4912287;28;98234;-51
2022/09/02 05:43:43;;;;;;;0.00;0.00;;;22.00;94.10;;;22.49;48.17;101206.13;4914901;28;97825;-48
2022/09/02 05:46:13;;;;;;;0.00;0.00;;;22.10;96.40;;;22.60;48.05;101210.69;4911266;28;97864;-50
2022/09/02 05:51:24;;;;;;;0.00;0.00;;;22.30;91.70;;;22.73;46.84;101201.56;4915630;28;101599;-52
2022/09/02 05:53:56;;;;;;;0.00;0.00;;;22.40;93.10;;;22.80;47.48;101201.91;4916387;28;97081;-47
2022/09/02 05:56:22;;;;;;;0.20;0.10;;;22.50;95.40;;;22.88;46.74;101204.06;4918315;28;97167;-49
2022/09/02 05:58:49;;;;;;;0.10;0.00;;;22.60;94.30;;;22.89;45.99;101203.06;4915227;28;96833;-53
2022/09/02 06:01:18;;;;;;;0.00;0.00;;;22.50;91.10;;;22.93;47.34;101208.09;4918247;28;102933;-49
2022/09/02 06:03:44;;;;;;;0.07;0.07;;;22.60;96.40;;;23.00;47.46;101205.75;4919031;28;97638;-52
2022/09/02 06:06:11;;;;;;;0.00;0.00;;;22.70;96.60;;;23.06;46.92;101203.44;4914562;28;96778;-51
2022/09/02 06:08:37;;;;;;;0.00;0.00;;;22.80;95.60;;;23.13;47.05;101198.41;4913689;28;97200;-53
2022/09/02 06:11:06;;;;;;;0.23;0.23;;;22.90;96.20;;;23.16;46.45;101206.28;4905235;28;99638;-50
2022/09/02 06:13:37;;;;;;;0.00;0.00;;;22.90;93.80;;;23.18;46.78;101201.63;4918958;28;98484;-45
2022/09/02 06:16:03;;;;;;;0.00;0.00;;;22.90;95.20;;;23.20;45.32;101199.66;4909385;28;97448;-47
2022/09/02 06:18:29;;;;;;;0.10;0.10;;;23.00;91.80;;;23.24;46.86;101197.56;4923599;28;97552;-54
2022/09/02 06:20:55;;;;;;;0.00;0.00;;;23.00;95.70;;;23.27;46.78;101200.84;4909636;28;97900;-45
2022/09/02 06:23:20;;;;;;;0.00;0.00;;;23.00;95.90;;;23.30;46.55;101197.94;4915054;28;98261;-45
2022/09/02 06:25:48;;;;;;;0.00;0.00;;;23.10;96.10;;;23.35;46.41;101197.56;4918543;28;97417;-52
2022/09/02 06:28:15;;;;;;;0.00;0.00;;;23.20;95.50;;;23.35;46.60;101194.88;4910016;28;97070;-49
2022/09/02 06:30:44;;;;;;;0.00;0.00;;;23.20;96.00;;;23.40;46.47;101204.28;4915721;28;97527;-48
2022/09/02 06:33:10;;;;;;;0.00;0.00;;;23.30;96.00;;;23.43;46.48;101204.06;4906207;28;97417;-51
2022/09/02 06:35:41;;;;;;;0.00;0.00;;;23.30;95.90;;;23.45;46.69;101202.09;4908713;28;97254;-50
2022/09/02 06:38:09;;;;;;;0.00;0.00;;;23.30;96.00;;;23.43;46.48;101204.06;4912142;28;97204;-49
2022/09/02 06:40:36;;;;;;;0.00;0.00;;;23.40;95.90;;;23.44;46.41;101205.75;4905955;28;97453;-47
2022/09/02 06:43:02;;;;;;;0.00;0.00;;;23.40;95.70;;;23.43;46.60;101203.16;4908855;28;97261;-52
2022/09/02 06:45:30;;;;;;;0.00;0.00;;;23.40;96.00;;;23.49;46.24;101199.13;4918298;28;99568;-53
2022/09/02 06:47:55;;;;;;;0.00;0.00;;;23.40;95.80;;;23.52;46.26;101201.59;4909996;28;97072;-48
2022/09/02 06:50:21;;;;;;;0.00;0.00;;;23.40;95.80;;;23.51;46.30;101205.25;4916350;28;104255;-48
2022/09/02 06:52:47;;;;;;;0.00;0.00;;;23.40;95.90;;;23.55;45.95;101202.19;4912129;28;97546;-51
2022/09/02 06:55:15;;;;;;;0.00;0.00;;;23.50;95.10;;;23.56;45.72;101208.41;4904097;28;97303;-50
2022/09/02 06:57:40;;;;;;;0.00;0.00;;;23.50;94.40;;;23.55;46.09;101202.19;4909577;28;97050;-51
2022/09/02 07:00:09;;;;;;;0.10;0.10;;;23.50;95.40;;;23.48;46.52;101210.91;4901741;28;96922;-51
2022/09/02 07:02:36;;;;;;;0.00;0.00;;;23.40;95.90;;;23.44;46.59;101211.16;4903946;28;98269;-49
2022/09/02 07:05:14;;;;;;;0.10;0.10;;;23.40;96.00;;;23.40;47.06;101201.59;4893767;28;98486;-56
2022/09/02 07:07:43;;;;;;;0.00;0.00;;;23.40;96.50;;;23.46;46.29;101202.94;4902503;28;97954;-54
2022/09/02 07:10:12;;;;;;;0.00;0.00;;;23.40;95.80;;;23.49;46.56;101207.22;4899407;28;97200;-51
2022/09/02 07:12:39;;;;;;;0.10;0.10;;;23.40;95.80;;;23.50;46.12;101206.25;4903503;28;99242;-52
2022/09/02 07:15:07;;;;;;;0.30;0.20;;;23.50;95.70;;;23.48;46.64;101206.38;4892608;28;100561;-54
2022/09/02 07:17:33;;;;;;;0.00;0.00;;;23.50;96.10;;;23.50;46.04;101200.84;4895478;28;97560;-53
2022/09/02 07:19:59;;;;;;;0.00;0.00;;;23.40;95.60;;;23.52;45.79;101191.66;4918706;22;98049;-47
2022/09/02 07:22:27;;;;;;;0.00;0.00;;;23.50;95.60;;;23.57;45.66;101191.28;4897793;28;97894;-50
2022/09/02 07:24:53;;;;;;;0.00;0.00;;;23.50;94.90;;;23.54;46.38;101195.09;4892025;28;97431;-48
2022/09/02 07:27:19;;;;;;;1.70;0.57;;;23.50;95.80;;;23.51;46.64;101183.72;4893783;28;98948;-50
2022/09/02 07:29:47;;;;;;;0.10;0.10;;;23.50;95.90;;;23.56;45.95;101184.19;4896798;28;100757;-50
2022/09/02 07:32:17;;;;;;;0.00;0.00;;;23.50;95.50;;;23.53;46.10;101187.13;4887912;28;98329;-52
2022/09/02 07:34:43;;;;;;;0.00;0.00;;;23.50;95.80;;;23.55;46.01;101185.16;4893798;28;98833;-47
2022/09/02 07:37:09;;;;;;;0.00;0.00;;;23.50;95.40;;;23.56;46.53;101181.50;4889440;28;98614;-54
2022/09/02 07:39:35;;;;;;;0.40;0.17;;;23.50;95.80;;;23.62;45.69;101189.13;4892723;28;97866;-49
2022/09/02 07:42:01;;;;;;;0.00;0.00;;;23.50;95.20;;;23.64;45.81;101179.06;4888199;28;99293;-46
2022/09/02 07:44:27;;;;;;;0.00;0.00;;;23.50;94.90;;;23.64;44.71;101182.63;4887076;28;97518;-48
2022/09/02 07:46:53;;;;;;;0.10;0.10;;;23.60;94.50;;;23.62;45.74;101181.03;4887385;28;98762;-48
2022/09/02 07:49:20;;;;;;;0.00;0.00;;;23.50;95.40;;;23.65;45.62;101175.41;4903156;28;97347;-48
2022/09/02 07:51:48;;;;;;;0.07;0.07;;;23.60;95.30;;;23.69;45.60;101179.53;4895999;28;97331;-50
2022/09/02 07:54:17;;;;;;;0.00;0.00;;;23.50;95.10;;;23.69;41.55;101187.63;4886061;28;97444;-45
2022/09/02 07:56:43;;;;;;;0.13;0.07;;;23.60;91.30;;;23.68;45.97;101185.91;4884684;28;97932;-44
2022/09/02 07:59:10;;;;;;;0.00;0.00;;;23.50;95.40;;;23.66;43.64;101172.56;4876769;28;99149;-44
2022/09/02 08:01:37;;;;;;;0.00;0.00;;;23.50;92.30;;;23.67;45.57;101181.50;4883859;28;98220;-44
2022/09/02 08:04:05;;;;;;;0.00;0.00;;;23.50;95.20;;;23.64;45.66;101179.94;4889902;28;101612;-48
2022/09/02 08:06:32;;;;;;;0.00;0.00;;;23.50;95.30;;;23.68;45.43;101178.69;4891739;28;97679;-42
2022/09/02 08:08:58;;;;;;;0.00;0.00;;;23.50;94.90;;;23.63;45.80;101177.38;4887210;28;97413;-44
2022/09/02 08:11:24;;;;;;;0.10;0.10;;;23.50;95.30;;;23.61;43.87;101171.25;4903676;28;101972;-46
2022/09/02 08:13:51;;;;;;;0.08;0.08;;;23.50;92.60;;;23.62;45.06;101171.13;4890148;28;99730;-47
2022/09/02 08:16:17;;;;;;;0.10;0.07;;;23.50;94.40;;;23.61;46.04;101168.56;4892365;28;98566;-48
2022/09/02 08:18:43;;;;;;;0.00;0.00;;;23.50;95.50;;;23.54;46.35;101172.69;4895451;28;98562;-43
2022/09/02 08:21:09;;;;;;;0.00;0.00;;;23.50;95.70;;;23.55;45.87;101179.78;4884320;28;114667;-44
2022/09/02 08:23:35;;;;;;;0.00;0.00;;;23.50;95.40;;;23.53;44.43;101170.97;4894787;28;98668;-44
2022/09/02 08:26:01;;;;;;;0.00;0.00;;;23.50;93.70;;;23.60;42.66;101169.53;4890560;28;98562;-44
2022/09/02 08:28:30;;;;;;;0.00;0.00;;;23.50;93.30;;;23.52;46.17;101163.88;4888321;28;97607;-44
2022/09/02 08:30:57;;;;;;;0.10;0.10;;;23.50;95.40;;;23.54;45.93;101162.78;4887163;28;100343;-43
2022/09/02 08:33:24;;;;;;;0.10;0.10;;;23.50;95.40;;;23.56;46.11;101159.94;4886802;28;97801;-46
2022/09/02 08:35:49;;;;;;;0.20;0.17;;;23.50;95.40;;;23.58;45.89;101158.03;4885988;28;101031;-46
2022/09/02 08:38:15;;;;;;;0.00;0.00;;;23.50;95.50;;;23.70;41.19;101167.78;4892779;28;98226;-45
2022/09/02 08:40:43;;;;;;;0.00;0.00;;;23.60;92.20;;;23.75;38.77;101162.88;4889191;28;97735;-42
2022/09/02 08:43:39;;;;;;;0.00;0.00;;;23.60;90.20;;;23.76;44.53;101167.28;4885286;28;98899;-44
2022/09/02 08:46:08;;;;;;;0.00;0.00;;;23.70;94.60;;;23.80;42.68;101157.97;4889017;28;106952;-44
2022/09/02 08:48:45;;;;;;;0.00;0.00;;;23.70;91.50;;;23.83;40.50;101156.84;4892161;28;99604;-43
2022/09/02 08:51:37;;;;;;;0.00;0.00;;;23.70;91.80;;;23.86;38.38;101152.06;4887109;28;97281;-42
2022/09/02 08:54:28;;;;;;;0.20;0.20;;;23.70;90.70;;;23.84;44.08;101145.94;4883962;28;97172;-45
2022/09/02 08:56:55;;;;;;;0.00;0.00;;;23.70;93.70;;;23.86;40.83;101146.66;4884643;28;97130;-44
2022/09/02 08:59:24;;;;;;;0.00;0.00;;;23.70;90.60;;;23.86;42.07;101141.28;4888516;28;99021;-47
2022/09/02 09:02:28;;;;;;;0.10;0.10;;;23.70;91.40;;;23.88;37.68;101144.72;4888236;28;97220;-45
2022/09/02 09:05:14;;;;;;;0.57;0.23;;;23.70;89.20;;;23.88;38.01;101150.13;4889616;28;96860;-44
2022/09/02 09:08:12;;;;;;;0.00;0.00;;;23.80;88.50;;;23.81;44.21;101154.28;4896319;28;97635;-44
2022/09/02 09:11:03;;;;;;;0.00;0.00;;;23.70;93.70;;;23.74;45.11;101153.94;4874899;28;101103;-47
2022/09/02 09:14:00;;;;;;;0.00;0.00;;;23.70;94.40;;;23.70;45.09;101146.22;4887617;28;102419;-42
2022/09/02 09:16:56;;;;;;;0.00;0.00;;;23.70;94.40;;;23.66;45.09;101134.88;4893549;28;97016;-45
2022/09/02 09:19:52;;;;;;;0.28;0.25;;;23.60;94.60;;;23.61;45.45;101129.03;4893963;28;97510;-45
2022/09/02 09:22:26;;;;;;;0.00;0.00;;;23.60;94.80;;;23.66;43.18;101131.31;4891568;28;101980;-44
2022/09/02 09:24:52;;;;;;;0.03;0.03;;;23.60;92.90;;;23.65;45.33;101127.78;4891899;28;97229;-45
2022/09/02 09:27:21;;;;;;;0.00;0.00;;;23.60;94.70;;;23.64;45.21;101127.91;4908563;28;96904;-45
2022/09/02 09:29:51;;;;;;;0.00;0.00;;;23.60;94.80;;;23.71;45.37;101121.00;4900510;28;98622;-45
2022/09/02 09:32:29;;;;;;;0.10;0.10;;;23.60;94.80;;;23.74;43.99;101134.25;4894352;28;101868;-43
2022/09/02 09:35:01;;;;;;;0.00;0.00;;;23.70;92.50;;;23.79;37.95;101118.53;4898199;28;97355;-43
2022/09/02 09:37:38;;;;;;;0.28;0.20;;;23.70;88.70;;;23.78;44.50;101114.16;4899266;28;98385;-45
2022/09/02 09:40:31;;;;;;;0.00;0.00;;;23.70;93.50;;;23.73;45.13;101108.31;4895820;28;101671;-45
2022/09/02 09:43:18;;;;;;;0.10;0.10;;;23.70;94.50;;;23.76;42.90;101108.03;4892692;28;97386;-46
2022/09/02 09:45:48;;;;;;;0.20;0.10;;;23.70;92.40;;;23.68;45.14;101105.13;4901006;28;98142;-44
2022/09/02 09:48:32;;;;;;;0.00;0.00;;;23.70;94.60;;;23.63;45.17;101091.19;4909026;28;97334;-43
2022/09/02 09:50:58;;;;;;;0.20;0.15;;;23.70;94.60;;;23.56;45.54;101098.03;4896310;28;97353;-43
2022/09/02 09:53:32;;;;;;;0.10;0.10;;;23.60;94.70;;;23.55;45.34;101099.00;4898100;28;97592;-44
2022/09/02 09:56:04;;;;;;;0.00;0.00;;;23.60;94.70;;;23.53;45.46;101092.91;4892976;28;97174;-43
2022/09/02 09:58:43;;;;;;;0.10;0.10;;;23.60;94.80;;;23.42;45.66;101094.63;4898141;28;98147;-42
2022/09/02 10:01:24;;;;;;;1.48;0.30;;;23.50;94.80;;;23.52;45.42;101096.56;4888058;28;97796;-44
2022/09/02 10:04:26;;;;;;;0.10;0.10;;;23.50;94.80;;;23.42;46.03;101097.31;4896917;28;99235;-47
2022/09/02 10:06:52;;;;;;;0.00;0.00;;;23.50;94.90;;;23.54;40.93;101091.91;4887251;28;98320;-44
2022/09/02 10:09:18;;;;;;;0.30;0.20;;;23.50;90.40;;;23.62;44.94;101097.56;4893412;28;98470;-44
2022/09/02 10:12:05;;;;;;;0.03;0.03;;;23.60;94.10;;;23.59;45.18;101092.44;4897142;28;98337;-46
2022/09/02 10:14:46;;;;;;;0.00;0.00;;;23.60;94.50;;;23.65;45.00;101089.22;4891876;28;100490;-43
2022/09/02 10:17:43;;;;;;;0.17;0.17;;;23.60;94.30;;;23.67;45.26;101092.63;4889849;28;98733;-43
2022/09/02 10:20:23;;;;;;;0.00;0.00;;;23.70;94.50;;;23.76;43.58;101096.41;4903011;28;97003;-46
2022/09/02 10:23:11;;;;;;;0.17;0.10;;;23.70;92.20;;;23.81;44.44;101091.47;4897044;28;96955;-46
2022/09/02 10:26:20;;;;;;;0.08;0.08;;;23.80;93.50;;;23.83;44.10;101084.97;4894817;28;100726;-45